Time;durP1;ratioP1;P1;durP2;ratioP2;P2;SDS_P1;SDS_P2;PMS_P1;PMS_P2;Temp;Humidity;BMP_temperature;BMP_pressure;BME280_temperature;BME280_humidity;BME280_pressure;Samples;Min_cycle;Max_cycle;Signal;HPM_P1;HPM_P2
2022/05/18 00:02:04;;;;;;;9.10;8.13;;;;;;;20.40;100.00;100796.47;4862405;29;20467;-74
2022/05/18 00:04:50;;;;;;;13.52;8.50;;;;;;;19.71;100.00;100794.13;4862743;29;20037;-74
2022/05/18 00:07:36;;;;;;;10.45;7.50;;;;;;;19.66;100.00;100793.53;4862065;29;20069;-74
2022/05/18 00:10:22;;;;;;;12.23;8.82;;;;;;;19.81;100.00;100784.72;4862922;29;20060;-75
2022/05/18 00:13:08;;;;;;;10.60;7.90;;;;;;;19.95;100.00;100780.38;4861408;29;20063;-75
2022/05/18 00:15:54;;;;;;;11.25;8.02;;;;;;;19.60;100.00;100783.22;4861897;29;20056;-75
2022/05/18 00:18:39;;;;;;;10.00;7.70;;;;;;;19.62;100.00;100778.66;4877428;29;20060;-74
2022/05/18 00:21:25;;;;;;;12.48;8.48;;;;;;;19.73;100.00;100774.47;4881035;29;20036;-74
2022/05/18 00:24:11;;;;;;;10.32;8.95;;;;;;;19.95;100.00;100760.88;4880792;29;20036;-74
2022/05/18 00:26:57;;;;;;;13.25;9.35;;;;;;;19.89;100.00;100774.53;4880504;29;20056;-75
2022/05/18 00:29:43;;;;;;;11.18;7.38;;;;;;;20.03;100.00;100761.31;4881064;29;20033;-75
2022/05/18 00:32:29;;;;;;;10.82;7.55;;;;;;;20.26;100.00;100760.94;4880190;29;20052;-75
2022/05/18 00:35:15;;;;;;;10.30;7.90;;;;;;;19.93;100.00;100758.31;4880534;29;20382;-74
2022/05/18 00:38:02;;;;;;;10.82;7.88;;;;;;;19.90;100.00;100766.47;4880557;29;20043;-75
2022/05/18 00:40:49;;;;;;;10.75;7.38;;;;;;;19.58;100.00;100777.13;4881733;29;20116;-74
2022/05/18 00:43:56;;;;;;;13.70;7.88;;;;;;;20.10;100.00;100762.75;4880805;29;20473;-75
2022/05/18 00:46:41;;;;;;;11.35;8.00;;;;;;;20.00;100.00;100765.00;4881052;29;20037;-75
2022/05/18 00:49:27;;;;;;;9.68;8.27;;;;;;;19.78;100.00;100760.97;4880085;29;20029;-74
2022/05/18 00:52:14;;;;;;;9.55;8.10;;;;;;;19.68;100.00;100759.75;4883331;29;20427;-74
2022/05/18 00:55:01;;;;;;;8.90;7.65;;;;;;;19.81;100.00;100752.81;4879950;29;20486;-74
2022/05/18 00:57:56;;;;;;;9.88;8.88;;;;;;;20.20;100.00;100762.13;4868325;29;20040;-74
2022/05/18 01:00:42;;;;;;;10.55;8.57;;;;;;;20.15;100.00;100760.66;4880433;29;20450;-75
2022/05/18 01:03:43;;;;;;;10.57;8.32;;;;;;;19.74;100.00;100757.63;4880336;29;20065;-75
2022/05/18 01:06:40;;;;;;;11.57;8.65;;;;;;;20.10;100.00;100754.75;4881930;29;20029;-74
2022/05/18 01:09:34;;;;;;;10.82;8.90;;;;;;;19.67;100.00;100747.38;4871847;29;20036;-75
2022/05/18 01:12:21;;;;;;;15.05;8.73;;;;;;;19.63;100.00;100751.13;4883910;29;20036;-75
2022/05/18 01:15:10;;;;;;;13.38;9.68;;;;;;;20.00;100.00;100746.38;4871108;29;20458;-74
2022/05/18 01:17:58;;;;;;;11.90;9.05;;;;;;;19.92;100.00;100743.28;4871237;29;20061;-74
2022/05/18 01:20:44;;;;;;;12.57;8.70;;;;;;;20.06;100.00;100734.56;4883542;29;20111;-75
2022/05/18 01:23:38;;;;;;;12.48;8.80;;;;;;;19.64;100.00;100734.28;4871325;29;20043;-75
2022/05/18 01:26:48;;;;;;;9.05;8.02;;;;;;;19.53;100.00;100734.81;4883620;29;20031;-74
2022/05/18 01:29:34;;;;;;;14.80;8.95;;;;;;;19.37;100.00;100733.94;4857590;29;20032;-74
2022/05/18 01:32:20;;;;;;;10.02;8.70;;;;;;;19.11;100.00;100740.59;4883345;29;20112;-74
2022/05/18 01:35:08;;;;;;;9.95;8.40;;;;;;;19.43;100.00;100743.38;4883465;29;20155;-75
2022/05/18 01:37:57;;;;;;;11.82;9.00;;;;;;;19.44;100.00;100735.31;4883309;29;20033;-75
2022/05/18 01:40:55;;;;;;;12.23;9.07;;;;;;;19.66;100.00;100724.41;4884378;29;20458;-75
2022/05/18 01:43:52;;;;;;;13.23;8.93;;;;;;;19.41;100.00;100719.53;4883275;29;20366;-75
2022/05/18 01:46:38;;;;;;;9.77;8.68;;;;;;;19.55;100.00;100721.47;4859104;29;20085;-74
2022/05/18 01:49:24;;;;;;;13.13;9.13;;;;;;;19.56;100.00;100718.72;4870836;29;20173;-75
2022/05/18 01:52:10;;;;;;;10.30;8.65;;;;;;;19.45;100.00;100720.25;4883512;29;20343;-74
2022/05/18 01:54:56;;;;;;;12.02;8.70;;;;;;;19.32;100.00;100712.06;4870378;29;20037;-74
2022/05/18 01:57:42;;;;;;;14.25;9.55;;;;;;;19.68;100.00;100714.56;4883546;29;20029;-75
2022/05/18 02:00:28;;;;;;;12.48;9.30;;;;;;;19.62;100.00;100706.91;4883162;29;20494;-74
2022/05/18 02:03:15;;;;;;;13.35;8.95;;;;;;;19.88;100.00;100701.00;4883118;29;20029;-75
2022/05/18 02:06:01;;;;;;;10.38;9.27;;;;;;;19.82;100.00;100704.00;4883720;29;20028;-75
2022/05/18 02:08:47;;;;;;;12.43;9.43;;;;;;;19.80;100.00;100695.28;4882650;29;20029;-75
2022/05/18 02:11:35;;;;;;;12.73;9.45;;;;;;;19.96;100.00;100693.44;4882919;29;20104;-74
2022/05/18 02:14:21;;;;;;;9.68;8.73;;;;;;;19.89;100.00;100684.97;4882720;29;20033;-74
2022/05/18 02:17:07;;;;;;;12.25;9.77;;;;;;;20.05;100.00;100691.13;4883079;29;20068;-75
2022/05/18 02:19:53;;;;;;;10.82;9.27;;;;;;;20.21;100.00;100684.03;4882689;29;20104;-75
2022/05/18 02:22:39;;;;;;;11.43;8.77;;;;;;;20.07;100.00;100678.63;4870292;29;20064;-75
2022/05/18 02:25:26;;;;;;;9.38;8.38;;;;;;;19.70;100.00;100678.97;4882477;29;20056;-74
2022/05/18 02:28:12;;;;;;;10.70;9.07;;;;;;;19.46;100.00;100675.00;4883623;29;20028;-74
2022/05/18 02:30:58;;;;;;;10.77;9.23;;;;;;;19.47;100.00;100682.03;4882722;29;20100;-75
2022/05/18 02:33:44;;;;;;;12.77;9.50;;;;;;;19.64;100.00;100670.47;4882501;29;20043;-75
2022/05/18 02:36:30;;;;;;;12.18;9.55;;;;;;;19.78;100.00;100670.56;4882417;29;20446;-75
2022/05/18 02:39:20;;;;;;;10.50;9.35;;;;;;;19.44;100.00;100668.06;4882797;29;20365;-75
2022/05/18 02:42:06;;;;;;;12.23;10.50;;;;;;;19.42;100.00;100672.56;4870270;29;20029;-75
2022/05/18 02:44:52;;;;;;;11.57;9.90;;;;;;;19.77;100.00;100669.69;4882789;29;20029;-75
2022/05/18 02:47:39;;;;;;;13.00;9.52;;;;;;;19.46;100.00;100676.78;4870224;29;20438;-74
2022/05/18 02:50:26;;;;;;;11.10;9.50;;;;;;;19.53;100.00;100672.84;4882085;29;20091;-75
2022/05/18 02:53:11;;;;;;;11.32;9.68;;;;;;;19.91;100.00;100679.56;4882219;29;20377;-75
2022/05/18 02:56:06;;;;;;;13.93;10.07;;;;;;;19.99;100.00;100678.19;4882119;29;20446;-75
2022/05/18 02:58:54;;;;;;;11.10;9.52;;;;;;;19.39;100.00;100684.22;4868935;29;20033;-75
2022/05/18 03:01:40;;;;;;;15.05;10.40;;;;;;;19.27;100.00;100690.19;4882098;29;20064;-75
2022/05/18 03:04:28;;;;;;;13.10;10.43;;;;;;;19.57;100.00;100695.66;4882533;29;20028;-75
2022/05/18 03:07:14;;;;;;;13.20;11.35;;;;;;;19.82;100.00;100694.25;4868816;29;20029;-75
2022/05/18 03:10:00;;;;;;;10.65;9.48;;;;;;;19.63;100.00;100692.66;4883047;29;20181;-75
2022/05/18 03:12:46;;;;;;;11.85;10.32;;;;;;;19.75;100.00;100694.66;4869252;29;20112;-75
2022/05/18 03:15:31;;;;;;;10.88;9.75;;;;;;;19.49;100.00;100693.41;4882930;29;20522;-75
2022/05/18 03:18:17;;;;;;;11.30;9.90;;;;;;;19.75;100.00;100702.63;4863372;29;20124;-74
2022/05/18 03:24:09;;;;;;;12.18;10.60;;;;;;;19.79;100.00;100712.16;4863243;29;20370;-75
2022/05/18 03:26:54;;;;;;;17.33;10.65;;;;;;;19.83;100.00;100719.00;4863626;29;20025;-74
2022/05/18 03:29:40;;;;;;;11.73;10.13;;;;;;;20.02;100.00;100741.88;4863038;29;20033;-75
2022/05/18 03:32:26;;;;;;;10.07;8.40;;;;;;;19.49;100.00;100783.75;4862600;29;20037;-75
2022/05/18 03:35:12;;;;;;;16.50;3.83;;;;;;;17.74;100.00;100786.31;4862992;29;20116;-73
2022/05/18 03:37:57;;;;;;;4.93;2.95;;;;;;;16.09;100.00;100795.09;4863392;29;20033;-71
2022/05/18 03:40:43;;;;;;;8.50;3.47;;;;;;;15.69;100.00;100832.72;4863434;29;20437;-71
2022/05/18 03:43:29;;;;;;;8.10;3.92;;;;;;;15.36;100.00;100827.78;4862126;29;20026;-71
2022/05/18 03:46:15;;;;;;;9.98;4.72;;;;;;;15.48;100.00;100819.44;4863144;29;20021;-71
2022/05/18 03:49:01;;;;;;;7.78;3.95;;;;;;;14.51;100.00;100814.78;4862958;29;20375;-71
2022/05/18 03:51:49;;;;;;;8.88;4.50;;;;;;;14.52;100.00;100816.50;4863271;29;20025;-70
2022/05/18 03:54:36;;;;;;;9.75;4.40;;;;;;;14.20;100.00;100844.75;4863162;29;20351;-71
2022/05/18 03:57:22;;;;;;;9.80;5.00;;;;;;;14.07;100.00;100861.84;4862668;29;20446;-72
2022/05/18 04:00:08;;;;;;;6.25;4.65;;;;;;;14.20;100.00;100892.19;4862960;29;20048;-72
2022/05/18 04:02:54;;;;;;;7.53;5.25;;;;;;;14.10;100.00;100917.94;4863140;29;20435;-73
2022/05/18 04:05:40;;;;;;;7.95;5.60;;;;;;;14.23;100.00;100921.13;4862928;29;20029;-73
2022/05/18 04:08:26;;;;;;;10.05;5.50;;;;;;;14.43;100.00;100919.63;4862470;29;20113;-72
2022/05/18 04:11:13;;;;;;;9.23;5.82;;;;;;;14.48;100.00;100915.06;4862995;29;20450;-73
2022/05/18 04:13:59;;;;;;;8.77;6.38;;;;;;;14.84;100.00;100919.22;4861523;29;20447;-73
2022/05/18 04:16:48;;;;;;;6.78;5.70;;;;;;;14.71;100.00;100922.31;4863606;29;20032;-74
2022/05/18 04:19:37;;;;;;;8.27;6.07;;;;;;;14.83;100.00;100927.16;4880897;29;20445;-74
2022/05/18 04:22:29;;;;;;;7.05;5.18;;;;;;;14.83;100.00;100932.44;4881215;29;20355;-74
2022/05/18 04:25:21;;;;;;;11.27;4.90;;;;;;;15.07;100.00;100928.19;4880911;29;20029;-75
2022/05/18 04:28:08;;;;;;;7.95;5.78;;;;;;;15.06;100.00;100937.88;4881157;29;20377;-73
2022/05/18 04:30:54;;;;;;;5.80;4.50;;;;;;;14.88;100.00;100939.31;4880992;29;20040;-73
2022/05/18 04:33:40;;;;;;;7.15;5.10;;;;;;;15.06;100.00;100927.31;4881365;29;20033;-72
2022/05/18 04:36:26;;;;;;;5.63;4.47;;;;;;;14.86;100.00;100928.88;4868332;29;20029;-72
2022/05/18 04:39:11;;;;;;;6.53;4.65;;;;;;;14.75;100.00;100932.69;4880600;29;20029;-73
2022/05/18 04:41:57;;;;;;;7.50;5.32;;;;;;;14.82;100.00;100936.88;4868037;29;20060;-72
2022/05/18 04:44:43;;;;;;;9.40;5.72;;;;;;;14.69;100.00;100932.91;4880417;29;20096;-73
2022/05/18 04:47:28;;;;;;;7.10;5.15;;;;;;;14.77;100.00;100920.34;4868174;29;20033;-72
2022/05/18 04:50:14;;;;;;;6.35;5.03;;;;;;;14.56;100.00;100926.25;4880316;29;20036;-74
2022/05/18 04:53:00;;;;;;;5.93;5.00;;;;;;;14.51;100.00;100932.59;4868410;29;20037;-72
2022/05/18 04:55:46;;;;;;;8.25;5.10;;;;;;;14.53;100.00;100929.00;4881038;29;20439;-73
2022/05/18 04:58:33;;;;;;;5.28;4.65;;;;;;;14.34;100.00;100955.94;4882059;29;20041;-73
2022/05/18 05:01:19;;;;;;;8.90;4.60;;;;;;;14.20;100.00;100956.28;4880842;29;20036;-72
2022/05/18 05:04:13;;;;;;;7.57;4.50;;;;;;;13.91;100.00;100955.41;4880903;29;20029;-72
2022/05/18 05:06:59;;;;;;;7.43;4.55;;;;;;;13.89;100.00;100965.97;4867853;29;20089;-72
2022/05/18 05:09:44;;;;;;;5.97;4.47;;;;;;;13.84;100.00;100964.34;4880523;29;20036;-73
2022/05/18 05:12:30;;;;;;;5.97;4.90;;;;;;;13.80;100.00;100970.63;4880779;29;20033;-72
2022/05/18 05:15:16;;;;;;;6.00;4.30;;;;;;;13.81;100.00;100978.47;4880344;29;20040;-71
2022/05/18 05:18:02;;;;;;;7.78;4.72;;;;;;;13.56;100.00;100987.91;4880139;29;20081;-71
2022/05/18 05:20:48;;;;;;;8.18;5.60;;;;;;;13.70;100.00;101006.84;4880172;29;20370;-70
2022/05/18 05:23:33;;;;;;;8.65;5.18;;;;;;;13.66;100.00;101007.84;4880619;29;20036;-72
2022/05/18 05:26:19;;;;;;;7.05;5.50;;;;;;;13.78;100.00;101019.81;4879939;29;20093;-71
2022/05/18 05:29:05;;;;;;;6.05;4.47;;;;;;;13.72;100.00;101022.63;4880128;29;20029;-71
2022/05/18 05:31:51;;;;;;;5.97;4.60;;;;;;;13.59;100.00;101014.16;4880038;29;20060;-71
2022/05/18 05:34:37;;;;;;;5.43;4.10;;;;;;;13.35;100.00;101017.38;4880187;29;20040;-71
2022/05/18 05:37:23;;;;;;;7.47;4.38;;;;;;;13.43;100.00;101051.44;4879499;29;20116;-72
2022/05/18 05:40:10;;;;;;;7.20;4.43;;;;;;;13.25;100.00;101049.22;4880683;29;20060;-72
2022/05/18 05:42:56;;;;;;;10.05;5.05;;;;;;;13.29;100.00;101067.53;4880524;29;20426;-73
2022/05/18 05:45:42;;;;;;;7.50;4.82;;;;;;;13.28;100.00;101071.06;4882029;29;20025;-72
2022/05/18 05:48:30;;;;;;;7.63;4.80;;;;;;;13.36;100.00;101086.69;4881144;29;20060;-73
2022/05/18 05:51:16;;;;;;;7.95;5.05;;;;;;;13.48;100.00;101103.06;4867504;29;20445;-72
2022/05/18 05:54:02;;;;;;;7.22;5.00;;;;;;;13.39;100.00;101120.84;4883824;29;20033;-73
2022/05/18 05:56:48;;;;;;;9.88;6.03;;;;;;;13.67;100.00;101112.25;4883316;29;20121;-72
2022/05/18 05:59:36;;;;;;;9.05;5.85;;;;;;;13.65;100.00;101124.59;4883840;29;20043;-73
2022/05/18 06:02:23;;;;;;;8.77;5.90;;;;;;;13.61;100.00;101122.94;4883319;29;20128;-73
2022/05/18 06:05:09;;;;;;;8.23;4.72;;;;;;;13.36;100.00;101142.81;4883989;29;20465;-73
2022/05/18 06:07:55;;;;;;;9.27;4.38;;;;;;;13.14;100.00;101132.81;4884014;29;20458;-73
2022/05/18 06:10:40;;;;;;;5.55;3.92;;;;;;;12.66;100.00;101136.38;4884216;29;20039;-72
2022/05/18 06:13:27;;;;;;;9.95;4.43;;;;;;;12.72;100.00;101167.78;4883687;29;20048;-72
2022/05/18 06:16:13;;;;;;;6.03;4.40;;;;;;;12.83;100.00;101179.00;4883293;29;20036;-72
2022/05/18 06:19:01;;;;;;;8.35;4.75;;;;;;;12.76;100.00;101185.25;4882818;29;20374;-72
2022/05/18 06:21:47;;;;;;;6.32;4.18;;;;;;;12.56;100.00;101200.53;4870493;29;20024;-72
2022/05/18 06:24:33;;;;;;;5.93;3.55;;;;;;;12.54;100.00;101210.22;4883055;29;20115;-72
2022/05/18 06:27:20;;;;;;;8.20;4.10;;;;;;;12.50;100.00;101206.75;4882789;29;20029;-72
2022/05/18 06:30:06;;;;;;;7.35;3.30;;;;;;;12.48;100.00;101205.03;4882945;29;20029;-73
2022/05/18 06:32:53;;;;;;;7.47;3.75;;;;;;;12.46;100.00;101197.19;4870032;29;20044;-73
2022/05/18 06:35:38;;;;;;;10.07;3.70;;;;;;;12.34;100.00;101205.28;4883240;29;20037;-73
2022/05/18 06:38:24;;;;;;;8.50;3.80;;;;;;;12.33;100.00;101187.78;4882476;29;20028;-72
2022/05/18 06:41:22;;;;;;;4.60;3.05;;;;;;;12.19;100.00;101191.53;4870235;29;20040;-72
2022/05/18 06:44:08;;;;;;;8.80;3.80;;;;;;;12.11;100.00;101196.94;4882463;29;20084;-74
2022/05/18 06:46:58;;;;;;;10.38;3.92;;;;;;;12.19;100.00;101200.31;4882874;29;20045;-73
2022/05/18 06:49:44;;;;;;;5.85;4.00;;;;;;;12.23;100.00;101209.88;4882964;29;20460;-73
2022/05/18 06:52:30;;;;;;;6.63;3.85;;;;;;;12.51;100.00;101220.78;4882873;29;20097;-73
2022/05/18 06:55:16;;;;;;;5.90;3.50;;;;;;;12.63;100.00;101226.69;4882473;29;20025;-72
2022/05/18 06:58:02;;;;;;;9.63;3.90;;;;;;;12.51;100.00;101241.78;4883440;29;20398;-71
2022/05/18 07:00:47;;;;;;;8.35;3.60;;;;;;;12.44;100.00;101250.66;4882246;29;20037;-73
2022/05/18 07:03:34;;;;;;;10.65;4.10;;;;;;;12.31;100.00;101257.91;4881709;29;20045;-72
2022/05/18 07:06:23;;;;;;;11.35;4.50;;;;;;;12.81;100.00;101263.16;4882464;29;20454;-73
2022/05/18 07:09:14;;;;;;;5.47;3.78;;;;;;;12.55;100.00;101257.50;4869548;29;20033;-72
2022/05/18 07:12:00;;;;;;;8.32;3.90;;;;;;;12.37;100.00;101265.66;4882516;29;20450;-72
2022/05/18 07:14:46;;;;;;;7.53;4.40;;;;;;;12.57;100.00;101284.63;4881714;29;20048;-73
2022/05/18 07:17:32;;;;;;;6.63;4.70;;;;;;;12.47;100.00;101293.56;4881842;29;20052;-73
2022/05/18 07:20:18;;;;;;;7.22;3.95;;;;;;;12.57;100.00;101300.38;4881927;29;20113;-73
2022/05/18 07:23:03;;;;;;;6.90;4.38;;;;;;;12.66;100.00;101304.63;4882345;29;20045;-72
2022/05/18 07:25:51;;;;;;;10.02;4.38;;;;;;;12.75;100.00;101310.59;4881717;29;20037;-72
2022/05/18 07:28:39;;;;;;;8.98;3.88;;;;;;;12.58;100.00;101315.25;4882346;29;20439;-72
2022/05/18 07:31:25;;;;;;;5.82;3.88;;;;;;;12.69;100.00;101326.47;4881564;29;20041;-72
2022/05/18 07:34:11;;;;;;;9.60;3.78;;;;;;;12.70;100.00;101319.47;4869273;29;20029;-72
2022/05/18 07:36:57;;;;;;;7.40;4.22;;;;;;;12.69;100.00;101321.22;4881751;29;20096;-72
2022/05/18 07:39:43;;;;;;;5.70;3.38;;;;;;;12.61;100.00;101323.09;4882015;29;20115;-72
2022/05/18 07:42:32;;;;;;;9.15;3.78;;;;;;;12.30;100.00;101327.09;4881969;29;20033;-73
2022/05/18 07:45:20;;;;;;;7.55;4.07;;;;;;;12.12;100.00;101342.25;4881548;29;20411;-72
2022/05/18 07:48:06;;;;;;;7.00;3.75;;;;;;;12.17;100.00;101343.91;4881550;29;20025;-72
2022/05/18 07:50:52;;;;;;;15.98;6.35;;;;;;;12.22;100.00;101343.88;4881183;29;20043;-72
2022/05/18 07:53:38;;;;;;;9.80;5.18;;;;;;;12.30;100.00;101355.97;4882071;29;20034;-72
2022/05/18 07:56:24;;;;;;;8.38;4.25;;;;;;;12.11;100.00;101367.66;4881833;29;20033;-71
2022/05/18 07:59:11;;;;;;;9.85;4.18;;;;;;;12.23;100.00;101369.25;4881610;29;20029;-73
2022/05/18 08:01:57;;;;;;;7.25;3.95;;;;;;;12.14;100.00;101372.84;4881662;29;20077;-72
2022/05/18 08:04:42;;;;;;;7.13;3.97;;;;;;;12.40;100.00;101373.38;4881036;29;20091;-71
2022/05/18 08:07:28;;;;;;;6.95;3.83;;;;;;;12.27;100.00;101363.94;4881597;29;20060;-71
2022/05/18 08:16:28;;;;;;;13.98;4.20;;;;;;;12.62;100.00;101380.03;4882343;29;20029;-71
2022/05/18 08:19:17;;;;;;;7.88;3.50;;;;;;;12.66;100.00;101379.09;4881356;29;20136;-72
2022/05/18 08:22:03;;;;;;;9.07;4.32;;;;;;;12.96;100.00;101383.88;4868189;29;20112;-71
2022/05/18 08:24:49;;;;;;;8.98;4.03;;;;;;;12.79;100.00;101388.56;4880560;29;20047;-71
2022/05/18 08:27:40;;;;;;;9.88;3.92;;;;;;;13.19;100.00;101388.78;4880898;29;20031;-71
2022/05/18 08:30:30;;;;;;;13.98;4.30;;;;;;;13.22;100.00;101394.84;4881150;29;20044;-72
2022/05/18 08:33:16;;;;;;;8.68;3.70;;;;;;;13.17;100.00;101394.06;4880462;29;20034;-72
2022/05/18 08:36:04;;;;;;;11.90;3.97;;;;;;;13.24;100.00;101395.72;4880773;29;20458;-72
2022/05/18 08:38:51;;;;;;;12.35;4.60;;;;;;;13.68;100.00;101398.41;4880414;29;20453;-72
2022/05/18 08:41:45;;;;;;;10.73;4.40;;;;;;;13.65;100.00;101402.81;4868299;29;20033;-73
2022/05/18 08:44:34;;;;;;;7.68;4.00;;;;;;;13.41;100.00;101409.44;4880440;29;20450;-72
2022/05/18 08:47:42;;;;;;;8.07;4.38;;;;;;;13.68;100.00;101419.47;4881011;29;20043;-73
2022/05/18 08:50:29;;;;;;;11.35;5.60;;;;;;;14.06;100.00;101411.66;4867900;29;20062;-74
2022/05/18 08:53:27;;;;;;;10.20;4.22;;;;;;;13.75;100.00;101422.84;4880478;29;20033;-73
2022/05/18 08:56:19;;;;;;;14.60;4.05;;;;;;;13.59;100.00;101419.59;4880690;29;20029;-73
2022/05/18 08:59:12;;;;;;;15.05;3.97;;;;;;;13.43;100.00;101420.78;4880784;29;20108;-72
2022/05/18 09:02:03;;;;;;;10.68;3.80;;;;;;;13.60;100.00;101423.13;4881020;29;20029;-72
2022/05/18 09:05:06;;;;;;;8.13;4.18;;;;;;;14.05;100.00;101415.19;4880940;29;20361;-73
2022/05/18 09:08:08;;;;;;;10.63;5.43;;;;;;;14.49;100.00;101420.41;4880368;29;20037;-73
2022/05/18 09:11:02;;;;;;;6.65;3.63;;;;;;;14.18;100.00;101432.47;4880575;29;20032;-73
2022/05/18 09:13:48;;;;;;;10.27;3.70;;;;;;;14.09;100.00;101435.31;4880023;29;20041;-73
2022/05/18 09:16:44;;;;;;;8.90;3.47;;;;;;;14.25;100.00;101434.13;4880418;29;20025;-73
2022/05/18 09:19:51;;;;;;;9.20;4.60;;;;;;;14.29;100.00;101437.56;4843055;29;20082;-73
2022/05/18 09:22:40;;;;;;;16.25;7.57;;;;;;;14.65;100.00;101448.19;4842459;29;20042;-74
2022/05/18 09:25:46;;;;;;;9.63;5.00;;;;;;;14.41;100.00;101445.22;4842727;29;20098;-74
2022/05/18 09:28:49;;;;;;;11.57;3.80;;;;;;;14.47;100.00;101455.63;4845679;29;20129;-73
2022/05/18 09:31:45;;;;;;;6.05;2.88;;;;;;;14.61;100.00;101464.97;4846065;29;20049;-73
2022/05/18 09:34:49;;;;;;;5.43;2.90;;;;;;;14.62;100.00;101477.25;4846134;29;20045;-73
2022/05/18 09:37:44;;;;;;;9.80;3.50;;;;;;;14.39;100.00;101482.16;4846308;29;20026;-73
2022/05/18 09:40:35;;;;;;;11.30;4.20;;;;;;;14.48;100.00;101481.94;4845886;29;20051;-73
2022/05/18 09:43:24;;;;;;;13.18;5.50;;;;;;;14.27;100.00;101484.19;4846117;29;20112;-74
2022/05/18 09:46:12;;;;;;;7.85;4.10;;;;;;;14.57;100.00;101487.06;4846792;29;20076;-73
2022/05/18 09:49:07;;;;;;;26.75;11.80;;;;;;;14.29;100.00;101488.53;4846165;29;20109;-74
2022/05/18 09:51:54;;;;;;;11.10;4.82;;;;;;;14.66;100.00;101499.16;4846193;29;20032;-73
2022/05/18 09:54:39;;;;;;;9.23;4.03;;;;;;;14.58;100.00;101486.13;4845924;29;20048;-73
2022/05/18 09:57:34;;;;;;;12.98;4.40;;;;;;;14.89;100.00;101499.53;4845442;29;20041;-73
2022/05/18 10:00:24;;;;;;;14.35;4.97;;;;;;;14.78;100.00;101504.16;4846595;29;20037;-73
2022/05/18 10:09:40;;;;;;;5.75;2.58;;;;;;;14.43;100.00;101523.38;4846486;29;20094;-74
2022/05/18 10:12:46;;;;;;;4.28;2.90;;;;;;;14.39;100.00;101532.25;4846310;29;20034;-74
2022/05/18 10:15:40;;;;;;;11.15;3.28;;;;;;;14.40;100.00;101539.25;4846162;29;20037;-74
2022/05/18 10:18:42;;;;;;;6.90;3.17;;;;;;;14.76;100.00;101537.63;4874644;29;20049;-74
2022/05/18 10:21:40;;;;;;;6.78;3.00;;;;;;;14.73;100.00;101553.53;4883072;29;20044;-74
2022/05/18 10:25:05;;;;;;;8.73;2.90;;;;;;;15.07;100.00;101554.50;4883047;29;20469;-73
2022/05/18 10:27:51;;;;;;;7.72;3.13;;;;;;;14.88;100.00;101558.47;4867274;29;20073;-72
2022/05/18 10:30:37;;;;;;;6.38;3.38;;;;;;;14.86;100.00;101554.97;4884761;29;20513;-73
2022/05/18 10:33:32;;;;;;;7.90;3.35;;;;;;;14.60;100.00;101555.53;4883765;29;20029;-74
2022/05/18 10:36:28;;;;;;;10.77;4.18;;;;;;;15.09;100.00;101552.72;4883513;29;20080;-73
2022/05/18 10:39:46;;;;;;;11.25;3.05;;;;;;;14.87;100.00;101554.06;4882598;29;20029;-73
2022/05/18 10:42:48;;;;;;;8.88;3.15;;;;;;;14.88;100.00;101561.97;4882604;29;20071;-73
2022/05/18 10:45:37;;;;;;;9.98;2.83;;;;;;;15.39;100.00;101569.66;4882704;29;20025;-73
2022/05/18 10:48:24;;;;;;;7.40;3.15;;;;;;;15.21;100.00;101556.84;4882754;29;20056;-74
2022/05/18 10:51:11;;;;;;;8.05;2.40;;;;;;;15.66;100.00;101564.56;4882981;29;20036;-73
2022/05/18 10:54:11;;;;;;;7.70;2.70;;;;;;;15.11;100.00;101563.25;4882432;29;20112;-74
2022/05/18 10:57:17;;;;;;;9.10;2.88;;;;;;;15.64;100.00;101569.03;4869652;29;20431;-73
2022/05/18 11:00:11;;;;;;;7.38;2.47;;;;;;;15.39;100.00;101567.88;4883291;29;20039;-73
2022/05/18 11:03:12;;;;;;;13.20;2.53;;;;;;;15.39;100.00;101575.78;4882289;29;20040;-73
2022/05/18 11:06:09;;;;;;;6.88;2.47;;;;;;;15.68;100.00;101580.38;4882617;29;20037;-72
2022/05/18 11:09:00;;;;;;;7.22;2.15;;;;;;;15.25;100.00;101577.88;4882072;29;20056;-73
2022/05/18 11:12:13;;;;;;;7.07;2.00;;;;;;;15.07;100.00;101577.41;4882452;29;20391;-72
2022/05/18 11:14:59;;;;;;;4.85;2.38;;;;;;;15.20;100.00;101578.88;4869264;29;20474;-72
2022/05/18 11:17:54;;;;;;;4.88;2.25;;;;;;;15.08;100.00;101587.94;4882363;29;20514;-74
2022/05/18 11:21:02;;;;;;;7.15;2.30;;;;;;;14.97;100.00;101594.34;4881897;29;20029;-73
2022/05/18 11:24:04;;;;;;;9.00;2.47;;;;;;;15.08;100.00;101605.53;4882090;29;20060;-73
2022/05/18 11:27:21;;;;;;;7.93;2.20;;;;;;;15.43;100.00;101608.31;4881646;29;20040;-73
2022/05/18 11:30:23;;;;;;;6.78;2.33;;;;;;;15.17;100.00;101605.31;4882165;29;20358;-72
2022/05/18 11:33:34;;;;;;;6.10;2.40;;;;;;;15.38;100.00;101600.47;4881512;29;20056;-73
2022/05/18 11:36:45;;;;;;;7.45;2.63;;;;;;;15.71;100.00;101604.94;4881800;29;20028;-73
2022/05/18 11:39:40;;;;;;;5.30;2.30;;;;;;;15.95;100.00;101606.13;4881747;29;20369;-74
2022/05/18 11:42:56;;;;;;;6.68;2.45;;;;;;;16.21;100.00;101603.69;4881803;29;20454;-73
2022/05/18 11:45:57;;;;;;;4.85;2.30;;;;;;;16.06;100.00;101604.94;4881623;29;20037;-74
2022/05/18 11:49:11;;;;;;;5.82;2.45;;;;;;;16.45;100.00;101613.63;4881743;29;20369;-73
2022/05/18 11:52:19;;;;;;;11.02;2.17;;;;;;;16.30;100.00;101606.94;4881638;29;20025;-73
2022/05/18 11:55:42;;;;;;;9.10;2.25;;;;;;;16.63;100.00;101605.22;4881335;29;20343;-72
2022/05/18 12:02:34;;;;;;;8.30;2.10;;;;;;;16.58;100.00;101615.03;4868736;29;20447;-73
2022/05/18 12:05:56;;;;;;;10.07;2.35;;;;;;;16.96;100.00;101623.59;4862727;29;20040;-73
2022/05/18 12:08:52;;;;;;;11.40;2.60;;;;;;;16.90;100.00;101625.56;4868557;29;20084;-73
2022/05/18 12:11:47;;;;;;;6.32;2.58;;;;;;;16.90;100.00;101629.09;4881566;29;20041;-73
2022/05/18 12:15:02;;;;;;;7.53;2.28;;;;;;;16.39;96.17;101641.09;4880958;29;20036;-73
2022/05/18 12:18:06;;;;;;;4.10;1.67;;;;;;;16.42;100.00;101646.31;4880942;29;20063;-72
2022/05/18 12:21:06;;;;;;;10.52;1.80;;;;;;;16.68;100.00;101635.88;4880709;29;20032;-74
2022/05/18 12:24:01;;;;;;;5.70;2.10;;;;;;;17.07;99.90;101639.19;4881984;29;20045;-73
2022/05/18 12:26:47;;;;;;;7.43;2.15;;;;;;;17.29;95.16;101641.16;4880991;29;20043;-73
2022/05/18 12:29:37;;;;;;;5.65;2.03;;;;;;;17.15;98.88;101647.75;4881362;29;20502;-73
2022/05/18 12:32:31;;;;;;;10.48;2.10;;;;;;;17.16;99.49;101647.72;4880599;29;20043;-73
2022/05/18 12:35:44;;;;;;;9.43;2.15;;;;;;;17.92;94.81;101651.56;4880845;29;20112;-74
2022/05/18 12:39:12;;;;;;;13.02;2.40;;;;;;;18.04;95.05;101645.81;4840506;29;20051;-74
2022/05/18 12:42:01;;;;;;;9.80;1.80;;;;;;;18.47;80.71;101651.44;4880404;29;20025;-73
2022/05/18 12:44:54;;;;;;;7.00;1.70;;;;;;;17.95;69.13;101656.75;4880389;29;20037;-74
2022/05/18 12:47:47;;;;;;;18.77;10.32;;;;;;;18.14;66.20;101657.88;4881258;29;20033;-74
2022/05/18 12:50:42;;;;;;;7.47;1.73;;;;;;;17.76;58.85;101668.88;4880437;29;20029;-74
2022/05/18 12:53:49;;;;;;;12.85;2.53;;;;;;;18.19;62.10;101667.41;4880635;29;20036;-74
2022/05/18 12:56:35;;;;;;;7.13;1.77;;;;;;;17.76;60.23;101663.56;4880275;29;20025;-74
2022/05/18 12:59:23;;;;;;;11.80;1.70;;;;;;;17.98;57.08;101659.31;4880945;29;20381;-74
2022/05/18 13:02:34;;;;;;;3.63;1.60;;;;;;;17.90;55.46;101669.28;4879347;29;20021;-75
2022/05/18 13:05:23;;;;;;;11.55;4.07;;;;;;;18.29;57.87;101668.81;4867668;29;20099;-75
2022/05/18 13:08:33;;;;;;;7.30;1.52;;;;;;;18.23;55.41;101671.69;4867613;29;20047;-74
2022/05/18 13:11:19;;;;;;;8.57;1.45;;;;;;;18.39;54.94;101675.59;4880181;29;20037;-74
2022/05/18 13:14:34;;;;;;;4.50;1.48;;;;;;;18.36;54.47;101664.22;4880125;29;20036;-74
2022/05/18 13:17:20;;;;;;;4.38;1.35;;;;;;;17.64;51.93;101662.16;4860016;29;20053;-74
2022/05/18 13:20:26;;;;;;;8.18;1.80;;;;;;;17.45;54.20;101665.44;4867831;29;20025;-74
2022/05/18 13:23:31;;;;;;;5.82;1.35;;;;;;;17.96;54.00;101667.31;4868030;29;20033;-74